Timeline UpdatesTrip UpdatesNews PostsPvt PostsTravel TipsAdmin PostsConv PostsFollowed PostsChat RequestsBlog PostsPNR Posts

Disclaimer
Search
 
 
Fri Aug 22, 2014 09:28:30 ISTHomeTrainsΣChainsAtlasPNRForumGalleryNewsFAQTripsMembersLoginFeedback
No Recent News for this Train
Other Trains in the News **new
Latest...
Last run over.
Tue Jul 01, 2014 (04:19PM)
⇐ Return Journey: Train# 13112

13111/Lal Quila Express

TRAIN IS CANCELLED
Change Departure Station:
Change Arrival Station:
Post a Train Travel TipPost a Train Travel Tip **new
Post a Comment/Question/Picture/VideoPost a Comment/Question/Picture/Video
Pantry/Catering
✕ NO Pantry Car
✓ Catering Avbl
RSA - Rake Sharing
Rake/Coach Composition
LOCO-S1-B1-SLR-GEN-S2-S3-S4-B2-GEN-GEN-RMS-SLR [S1,B1 detached at MDP] ; :Entry# 618089-32
Loco
WAP4 HOWRAH/GHAZIABAD SHED
News    PNR    Forum    Time-Table    Availability    Fare Chart    Map    Arr/Dep History    Trips    Gallery    ΣChains    X/O    Timeline    
Travel Time: 20h 46m    48 halts    Distance: 996 km    Avg Speed: 47 km/hr
Type: Mail/Express
Zone: ER/Eastern
Departs @ 20:15 (Avg on time)
Platform# 3
SMTWTFS
Kolkata Chitpur/KOAA 
Arrives @ 17:01 +1 night (Avg 4h 12m late)
Platform# ???
SMTWTFS
Rasulabad/RUB 

48 halts. 214 intermediate Stations between Kolkata Chitpur and Rasulabad

Show ALL intermediate Stations  Show Old Time-Table

#CodeStation NameX/OArrivesAvgDepartsAvgHaltPFDay#KmSpeedElevZoneAddress
1KOAA»Kolkata Chitpur (5)»  -20:15+0310.0316mERKolkata, West Bengal
2DAKEDakhineswar (2)  20:34-20:35-1m119.96410mERDist - 24 paraganas ( North ), West Bengal
3BWNBarddhaman Junction (8)  21:58+1422:03+135m1198.68434mERDist - Barddhaman, West Bengal
4RNGRaniGanj (4)  23:06+2523:07+281m21186.45492mERRaniganj, West Bengal
5ASNAsansol Junction (7)  23:27+2623:32+295m41204.650113mERDist - bardhaman, West Bengal
6CRJChittaranjan (3)  00:02+2900:03+301m32229.766182mERMihijam, Jharkhand
7JMTJamtara (2)  00:16+3000:17+361m12244.059201mERJamtara, Jharkhand
8MDPMadhupur Junction (4)01:00+4301:40+4340m22286.073254mER06432-224478, Jharkhand
9JSMEJasidih Junction (5)  02:04+4602:09+455m22315.152271mERJasidih, Jharkhand
10JAJJhajha (4)  03:00+4603:05+485m--2359.274143mECRJhajha, Bihar
11JMUJamui (3)  03:26+5003:27+511m--2385.26881mECRState Highway 72, Bihar
12KIULKiul Junction (5)  03:51+5103:55+524m--2412.51253mECRDist. Lakhisarai, Bihar
13LKRLuckeesarai Junction (2)  04:02+5804:03+591m--2413.96552mECRLakhisarai, Bihar
14BRYABarhiya (3)  04:17+1:1004:18+1:111m--2429.05947mECRBarahiya, Bihar
15MKAMokama Junction (4)  04:36+1:1704:40+1:164m--2446.78648mECRPatna, Bihar
16BARHBarh (3)  04:58+1:1904:59+1:211m--2472.66849mECRBarh, Bihar
17BKPBakhtiyarpur Junction (5)  05:15+1:2005:19+1:224m--2490.97751mECRPatna, Bihar
18FUTFatwa (6)  05:37+1:4305:38+1:511m--2513.94653mECRPatna, Bihar
19BKGBanka Ghat (2)  05:46+1:5105:47+1:551m--2520.05356mECRPatna, Bihar
20PNCPatna Saheb (3)  05:54+1:5705:55+1:591m--2526.12059mECRPatna, Bihar
21GZHGulzarbagh (3)  06:04+1:5606:05+1:591m--2529.22855mECRPatna, Bihar
22RJPBRajendra Nagar Bihar (4)  06:14+1:3006:16+1:312m--2533.4555mECRPatna 800001, Bihar
23PNBEPatna Junction (10)  06:50+1:1707:00+1:2010m42536.03857mECRPatna 800001, Bihar
24DNRDanapur (5)  07:15+1:4707:35+1:5020m--2545.48758mECRKhagaul, Bihar
25BTABihta (2)  07:47+1:5407:48+1:571m--2562.75862mECRDistt: Patna, Bihar
26KWRKoelwar (2)  07:57-07:58-1m--2571.54365mECRNational Highway 30, Bihar
27KUAKulharia (2)  08:03+1:5608:04+1:581m--2575.05461mECRChandi Sahar Rd, Bihar
28ARAAra Junction (3)  08:15+1:4608:20+1:455m--2584.99263mECRarrah( 06182-233411), Bihar
29BEABihiya (3)  08:34+2:0408:35+2:111m--2606.35167mECRBehea, Bihar
30BYNBanahi (2)  08:42+2:1308:43+2:131m--2612.35967mECRBanahi, Bihar
31RPRRaghunathpur (4)  08:52+2:2208:53+2:231m--2621.17469mECRRaghunathpur, Bihar
32DUREDumraon (3)  09:06+1:4509:07+1:501m--2637.12970mECRDumraon, Bihar
33BXRBuxar (3)  09:41+2:1809:46+2:245m22653.47367mECRBuxar, Bihar
34CSAChausa (2)  09:55+1:5709:56+1:591m--2664.44368mECRState Highway 14, Bihar
35GMRGahmar (2)  10:09+2:2510:10+2:261m--2673.63868mECRDistt: Ghazipur, Uttar Pradesh
36BWHBhadaura (2)  10:23+2:2010:24+2:211m--2681.84769mECRGhazipur, Uttar Pradesh
37DLNDildarnagar Junction (2)  10:34+2:2010:36+2:202m--2689.64072mECRDildarnagar, Uttar Pradesh
38ZNAZamania (2)  10:56+2:1110:57+2:141m--2703.13877mECRGhazipur, Uttar Pradesh
39MGSMughal Sarai Junction (8)  12:07+1:3312:27+1:3720m42747.35383mECRMughalsarai 232101, Uttar Pradesh
40CARChunar Junction (5)  13:03+2:5813:04+3:021m22779.25485mNCRChunar Junction, Uttar Pradesh
41MZPMirzapur (3)  13:39+3:2413:40+3:281m--2810.54088mNCRMirzapur, Uttar Pradesh
42BDLVindhyachal (3)  13:51+3:3013:52+3:311m--2817.87288mNCRMirzapur, Uttar Pradesh
43MNFManda Road  14:15+3:2114:16+3:221m--2845.46593mNCRNH 76, Uttar Pradesh
44MJAMeja Road (4)  14:31+3:5314:32+3:561m--2861.67294mNCRDistrict Allahabad, Uttar Pradesh
45NYNNaini Junction (4)  14:58+4:0115:00+4:032m22892.62198mNCRAllahabad, Uttar Pradesh
46ALDAllahabad Junction (10)  15:20+3:1015:30+3:1310m32899.760100mNCRAllahabad 211003, Uttar Pradesh
47BREBharwari  16:07+4:0416:08+4:071m--2936.864108mNCRBharwari, Uttar Pradesh
48SROSirathu (2)  16:27+3:4016:28+3:411m12956.978109mNCRSirathu, Uttar Pradesh
49KGAKhaga (3)  16:47+4:1116:48+4:121m--2981.767114mNCRFatehpur, Uttar Pradesh
50RUB•Rasulabad•  17:01+4:1217:02+4:151m--2996.355118mNCRRasulabad, Uttar Pradesh
51FTPFatehpur (3)  17:24+4:1217:25+4:141m321016.469120mNCRFatehpur, Uttar Pradesh
52MWHMalwan (2)  17:39+4:1517:40+4:161m--21032.665122mNCRFatehpur, Uttar Pradesh
53BKOBindki Road  17:54+4:2317:55+4:301m--21047.753124mNCRFatehpur, Uttar Pradesh
54KBNKarbigwan  18:09+4:2918:10+4:371m--21060.045121mNCRFatehpur, Uttar Pradesh
55CNBKanpur Central (10)  18:55+3:2019:05+3:2410m--21094.019128mNCRKANPUR-208 001, Uttar Pradesh
56GOYGovindpuri Junction (2)  19:17+4:4919:18+4:491m121097.846129mNCRKANPUR-208 006, Uttar Pradesh
57PNKPanki (3)  19:28+5:0019:29+5:031m--21105.578129mNCRKANPUR-208 020, Uttar Pradesh
58PHDPhaphund (4)  20:24+3:3820:25+3:461m321177.199146mNCRdist. Auraiya, Uttar Pradesh
59ETWEtawah (5)  20:59+4:5421:00+5:011m221233.385154mNCRDistt. Etawah, Uttar Pradesh
60SKBShikohabad Junction (4)  21:39+5:1821:40+5:201m321288.729166mNCRDistrict Firozabad, Uttar Pradesh
61FZDFirozabad (4)  22:21+4:5622:22+5:011m321308.643164mNCRFirozabad, Uttar Pradesh
62TDLTundla Junction (5)  22:45+5:0122:55+5:1510m221325.182167mNCRDistt.Firozabad, Uttar Pradesh
63HRSHathras Junction (3)  23:30+5:2323:31+5:241m--21373.167183mNCRMahamaya Nagar(05722-242803), Uttar Pradesh
64ALJNAligarh Junction (4)  23:58+4:5600:03+5:045m321403.371192mNCRAligarh, Uttar Pradesh
65KRJKhurja Junction (4)  00:40+5:4200:45+5:405m231446.838199mNCRBulandshahr, Uttar Pradesh
66GZBGhaziabad Junction (6)  02:23+4:1902:25+4:192m531509.427217mNRGhaziabad, Uttar Pradesh
67DLIOld Delhi Junction (16)  03:10+4:42-731529.5-219mNRNear Chandni Chowk Metro Station, Delhi NCT
Scroll to Top
Scroll to Bottom